Time;durP1;ratioP1;P1;durP2;ratioP2;P2;SDS_P1;SDS_P2;PMS_P1;PMS_P2;Temp;Humidity;BMP_temperature;BMP_pressure;BME280_temperature;BME280_humidity;BME280_pressure;Samples;Min_cycle;Max_cycle;Signal;HPM_P1;HPM_P2
2021/11/15 00:00:09;;;;;;;98.28;39.97;;;6.70;99.90;;;;;;5110074;28;20059;-44
2021/11/15 00:02:34;;;;;;;93.47;36.67;;;6.70;99.90;;;;;;5110320;28;20027;-43
2021/11/15 00:05:00;;;;;;;108.60;41.25;;;6.80;99.90;;;;;;5109888;28;20031;-43
2021/11/15 00:07:25;;;;;;;107.78;41.50;;;6.70;99.90;;;;;;5109378;28;20118;-43
2021/11/15 00:09:51;;;;;;;101.40;42.00;;;6.80;99.90;;;;;;5110044;28;20024;-43
2021/11/15 00:12:16;;;;;;;114.05;41.92;;;6.70;99.90;;;;;;5109866;28;20047;-45
2021/11/15 00:14:42;;;;;;;102.70;40.78;;;6.80;99.90;;;;;;5108483;28;20049;-44
2021/11/15 00:17:07;;;;;;;108.40;43.35;;;6.80;99.90;;;;;;5109268;28;20028;-42
2021/11/15 00:19:33;;;;;;;113.18;43.00;;;6.80;99.90;;;;;;5103359;28;20024;-42
2021/11/15 00:21:59;;;;;;;109.65;40.90;;;6.80;99.90;;;;;;5101049;28;20262;-42
2021/11/15 00:24:25;;;;;;;100.57;38.65;;;6.80;99.90;;;;;;5109568;28;20043;-43
2021/11/15 00:26:50;;;;;;;102.53;41.08;;;6.80;99.90;;;;;;5109700;28;20542;-43
2021/11/15 00:29:16;;;;;;;106.68;42.15;;;6.80;99.90;;;;;;5109129;28;20020;-42
2021/11/15 00:31:44;;;;;;;105.30;41.22;;;6.80;99.90;;;;;;5109696;28;20142;-43
2021/11/15 00:34:10;;;;;;;109.38;42.05;;;6.80;99.90;;;;;;5109748;28;20050;-45
2021/11/15 00:36:35;;;;;;;117.53;42.28;;;6.80;99.90;;;;;;5109120;28;20020;-42
2021/11/15 00:39:02;;;;;;;100.65;39.53;;;6.80;99.90;;;;;;5108752;28;20039;-42
2021/11/15 00:41:27;;;;;;;104.72;40.58;;;6.80;99.90;;;;;;5107890;28;20116;-44
2021/11/15 00:43:53;;;;;;;99.88;39.88;;;6.80;99.90;;;;;;5109338;28;20488;-42
2021/11/15 00:46:19;;;;;;;110.60;42.45;;;6.80;99.90;;;;;;5109500;28;20047;-42
2021/11/15 00:48:44;;;;;;;107.18;40.75;;;6.80;99.90;;;;;;5108543;28;20481;-44
2021/11/15 00:51:10;;;;;;;109.47;42.03;;;6.80;99.90;;;;;;5096508;28;20024;-44
2021/11/15 00:53:35;;;;;;;104.82;42.50;;;6.80;99.90;;;;;;5106135;28;20031;-43
2021/11/15 00:56:01;;;;;;;98.22;41.53;;;6.80;99.90;;;;;;5109315;28;20059;-42
2021/11/15 00:58:26;;;;;;;110.70;42.17;;;6.80;99.90;;;;;;5107172;28;20156;-43
2021/11/15 01:00:52;;;;;;;91.47;39.33;;;6.80;99.90;;;;;;5108473;28;20039;-42
2021/11/15 01:03:17;;;;;;;96.07;39.85;;;6.80;99.90;;;;;;5107540;28;20500;-44
2021/11/15 01:05:47;;;;;;;105.70;43.70;;;6.80;99.90;;;;;;5108652;28;20424;-43
2021/11/15 01:08:15;;;;;;;91.38;39.50;;;6.90;99.90;;;;;;5106867;28;20020;-43
2021/11/15 01:10:41;;;;;;;99.40;41.47;;;6.80;99.90;;;;;;5108773;28;20051;-43
2021/11/15 01:13:06;;;;;;;93.18;40.40;;;6.80;99.90;;;;;;5108767;28;20071;-43
2021/11/15 01:15:34;;;;;;;88.00;39.60;;;6.80;99.90;;;;;;5108694;28;20037;-43
2021/11/15 01:18:00;;;;;;;87.95;39.10;;;6.80;99.90;;;;;;5106686;28;20504;-43
2021/11/15 01:20:29;;;;;;;83.55;38.33;;;6.70;99.90;;;;;;5102044;28;20028;-44
2021/11/15 01:22:56;;;;;;;94.38;41.47;;;6.70;99.90;;;;;;5099921;28;20484;-45
2021/11/15 01:25:22;;;;;;;99.13;40.22;;;6.70;99.90;;;;;;5107208;28;20042;-43
2021/11/15 01:27:48;;;;;;;100.32;44.38;;;6.70;99.90;;;;;;5107915;28;20027;-45
2021/11/15 01:30:16;;;;;;;91.70;42.10;;;6.70;99.90;;;;;;5108557;28;20044;-43
2021/11/15 01:32:42;;;;;;;93.78;41.30;;;6.70;99.90;;;;;;5108825;28;20397;-43
2021/11/15 01:35:08;;;;;;;95.43;43.55;;;6.70;99.90;;;;;;5108126;28;20070;-43
2021/11/15 01:37:34;;;;;;;87.55;39.38;;;6.70;99.90;;;;;;5107607;28;20031;-43
2021/11/15 01:40:01;;;;;;;85.28;38.97;;;6.70;99.90;;;;;;5108547;28;20039;-43
2021/11/15 01:42:26;;;;;;;87.75;40.65;;;6.60;99.90;;;;;;5108315;28;20024;-44
2021/11/15 01:44:52;;;;;;;89.95;40.60;;;6.70;99.90;;;;;;5108327;28;20442;-43
2021/11/15 01:47:18;;;;;;;84.63;38.72;;;6.60;99.90;;;;;;5107626;28;20031;-46
2021/11/15 01:49:44;;;;;;;86.20;38.20;;;6.60;99.90;;;;;;5102780;28;20062;-42
2021/11/15 01:52:10;;;;;;;85.72;40.92;;;6.60;99.90;;;;;;5099742;28;20511;-44
2021/11/15 01:54:36;;;;;;;82.13;36.47;;;6.60;99.90;;;;;;5108290;28;20035;-44
2021/11/15 01:57:02;;;;;;;82.53;37.55;;;6.50;99.90;;;;;;5106084;28;20544;-46
2021/11/15 01:59:27;;;;;;;78.03;37.47;;;6.50;99.90;;;;;;5106385;28;20024;-45
2021/11/15 02:01:53;;;;;;;71.72;35.97;;;6.50;99.90;;;;;;5108129;28;20080;-43
2021/11/15 02:04:19;;;;;;;76.85;37.75;;;6.50;99.90;;;;;;5108105;28;20134;-43
2021/11/15 02:06:44;;;;;;;83.68;37.63;;;6.50;99.90;;;;;;5106567;28;20024;-44
2021/11/15 02:09:10;;;;;;;80.75;34.95;;;6.40;99.90;;;;;;5107847;28;20358;-44
2021/11/15 02:11:36;;;;;;;83.18;34.28;;;6.40;99.90;;;;;;5108145;28;20147;-43
2021/11/15 02:14:03;;;;;;;81.50;36.65;;;6.40;99.90;;;;;;5111605;28;20491;-42
2021/11/15 02:16:30;;;;;;;74.22;33.83;;;6.50;99.90;;;;;;5112168;28;20028;-43
2021/11/15 02:18:56;;;;;;;71.00;35.00;;;6.40;99.90;;;;;;5111342;28;20032;-43
2021/11/15 02:21:25;;;;;;;78.90;34.38;;;6.40;99.90;;;;;;5098129;28;20491;-42
2021/11/15 02:23:52;;;;;;;66.15;33.42;;;6.40;99.90;;;;;;5111280;28;20067;-43
2021/11/15 02:26:21;;;;;;;75.45;33.72;;;6.40;99.90;;;;;;5112115;28;20115;-42
2021/11/15 02:28:49;;;;;;;79.97;36.13;;;6.40;99.90;;;;;;5111342;28;20036;-44
2021/11/15 02:31:19;;;;;;;72.03;35.20;;;6.40;99.90;;;;;;5111907;28;20031;-43
2021/11/15 02:33:52;;;;;;;80.68;35.80;;;6.40;99.90;;;;;;5111951;28;20693;-43
2021/11/15 02:36:19;;;;;;;80.70;36.63;;;6.30;99.90;;;;;;5111582;28;20038;-43
2021/11/15 02:38:46;;;;;;;85.43;35.35;;;6.30;99.90;;;;;;5109602;28;20396;-42
2021/11/15 02:41:11;;;;;;;72.45;34.88;;;6.30;99.90;;;;;;5111656;28;20500;-43
2021/11/15 02:43:37;;;;;;;76.78;36.63;;;6.30;99.90;;;;;;5111500;28;20095;-43
2021/11/15 02:46:02;;;;;;;80.55;36.17;;;6.30;99.90;;;;;;5111673;28;20062;-43
2021/11/15 02:48:29;;;;;;;77.20;36.20;;;6.30;99.90;;;;;;5110865;28;20020;-43
2021/11/15 02:50:55;;;;;;;80.78;35.88;;;6.30;99.90;;;;;;5103372;28;20023;-43
2021/11/15 02:53:21;;;;;;;84.60;37.08;;;6.30;99.90;;;;;;5106343;28;20038;-43
2021/11/15 02:55:47;;;;;;;91.32;37.80;;;6.30;99.90;;;;;;5111383;28;20638;-43
2021/11/15 02:58:14;;;;;;;81.63;37.58;;;6.30;99.90;;;;;;5110738;28;20152;-43
2021/11/15 03:00:49;;;;;;;78.82;36.75;;;6.30;99.90;;;;;;5109661;28;20023;-42
2021/11/15 03:03:16;;;;;;;85.75;37.03;;;6.30;99.90;;;;;;5096571;28;20020;-44
2021/11/15 03:05:45;;;;;;;85.72;38.83;;;6.30;99.90;;;;;;5090237;28;20027;-44
2021/11/15 03:08:12;;;;;;;89.72;40.78;;;6.30;99.90;;;;;;5090020;28;20211;-43
2021/11/15 03:10:39;;;;;;;84.38;40.15;;;6.30;99.90;;;;;;5090474;28;20056;-43
2021/11/15 03:13:07;;;;;;;83.57;36.88;;;6.30;99.90;;;;;;5090557;28;20024;-43
2021/11/15 03:15:40;;;;;;;84.43;36.88;;;6.30;99.90;;;;;;5090332;28;20439;-43
2021/11/15 03:18:15;;;;;;;78.32;35.53;;;6.30;99.90;;;;;;5087490;28;20024;-43
2021/11/15 03:20:44;;;;;;;89.05;36.70;;;6.30;99.90;;;;;;5083708;28;20047;-46
2021/11/15 03:23:14;;;;;;;87.68;39.08;;;6.30;99.90;;;;;;5090610;28;20066;-43
2021/11/15 03:25:40;;;;;;;87.72;37.65;;;6.30;99.90;;;;;;5089538;28;20298;-44
2021/11/15 03:28:10;;;;;;;83.07;37.75;;;6.20;99.90;;;;;;5089536;28;20473;-43
2021/11/15 03:30:35;;;;;;;83.65;37.17;;;6.20;99.90;;;;;;5088623;28;20038;-43
2021/11/15 03:33:01;;;;;;;88.30;37.47;;;6.20;99.90;;;;;;5087392;28;20023;-43
2021/11/15 03:35:27;;;;;;;85.70;38.05;;;6.20;99.90;;;;;;5089748;28;20170;-44
2021/11/15 03:37:53;;;;;;;90.75;38.30;;;6.20;99.90;;;;;;5089218;28;20294;-46
2021/11/15 03:40:24;;;;;;;92.05;38.67;;;6.20;99.90;;;;;;5090106;28;20028;-43
2021/11/15 03:42:52;;;;;;;97.75;40.97;;;6.20;99.90;;;;;;5090013;28;20032;-43
2021/11/15 03:45:18;;;;;;;96.00;43.17;;;6.20;99.90;;;;;;5090350;28;20440;-44
2021/11/15 03:47:45;;;;;;;88.07;40.30;;;6.30;99.90;;;;;;5089425;28;20538;-44
2021/11/15 03:50:10;;;;;;;90.10;41.25;;;6.30;99.90;;;;;;5095115;28;20409;-43
2021/11/15 03:52:38;;;;;;;87.75;39.78;;;6.20;99.90;;;;;;5102131;28;20023;-43
2021/11/15 03:55:06;;;;;;;92.13;40.75;;;6.30;99.90;;;;;;5110376;28;20088;-43
2021/11/15 03:57:31;;;;;;;101.63;42.03;;;6.20;99.90;;;;;;5097051;28;20075;-43
2021/11/15 03:59:57;;;;;;;101.88;41.95;;;6.20;99.90;;;;;;5089981;28;20488;-43
2021/11/15 04:02:27;;;;;;;107.65;44.13;;;6.20;99.90;;;;;;5089785;28;20103;-43
2021/11/15 04:04:57;;;;;;;101.50;43.55;;;6.20;99.90;;;;;;5089609;28;20178;-43
2021/11/15 04:07:28;;;;;;;104.40;43.05;;;6.10;99.90;;;;;;5089156;28;20020;-43
2021/11/15 04:09:55;;;;;;;101.97;43.28;;;6.10;99.90;;;;;;5089993;28;20028;-43
2021/11/15 04:12:22;;;;;;;108.18;43.72;;;6.20;99.90;;;;;;5089864;28;20024;-44
2021/11/15 04:14:47;;;;;;;106.82;44.38;;;6.20;99.90;;;;;;5089940;28;20101;-42
2021/11/15 04:17:13;;;;;;;111.95;46.20;;;6.10;99.90;;;;;;5089145;28;20644;-42
2021/11/15 04:19:39;;;;;;;104.63;42.40;;;6.20;99.90;;;;;;5085281;28;20449;-44
2021/11/15 04:22:05;;;;;;;100.80;42.60;;;6.20;99.90;;;;;;5101501;28;20114;-43
2021/11/15 04:24:30;;;;;;;112.68;42.95;;;6.20;99.90;;;;;;5109583;28;20065;-43
2021/11/15 04:26:56;;;;;;;100.47;41.80;;;6.20;99.90;;;;;;5109547;28;20020;-42
2021/11/15 04:29:21;;;;;;;93.45;39.88;;;6.20;99.90;;;;;;5109441;28;20030;-49
2021/11/15 04:31:47;;;;;;;94.35;39.90;;;6.20;99.90;;;;;;5109609;28;20031;-43
2021/11/15 04:34:12;;;;;;;85.25;36.78;;;6.20;99.90;;;;;;5109440;28;20098;-43
2021/11/15 04:36:40;;;;;;;84.40;37.67;;;6.20;99.90;;;;;;5109205;28;20397;-43
2021/11/15 04:39:05;;;;;;;78.25;32.92;;;6.20;99.90;;;;;;5108859;28;20548;-45
2021/11/15 04:41:31;;;;;;;82.18;35.78;;;6.10;99.90;;;;;;5109414;28;20036;-42
2021/11/15 04:43:56;;;;;;;69.55;33.20;;;6.20;99.90;;;;;;5109522;28;20509;-43
2021/11/15 04:46:22;;;;;;;70.40;32.15;;;6.20;99.90;;;;;;5109479;28;20038;-44
2021/11/15 04:48:48;;;;;;;78.40;34.03;;;6.20;99.90;;;;;;5107369;28;20038;-43
2021/11/15 04:51:14;;;;;;;88.15;39.75;;;6.10;99.90;;;;;;5097663;28;20442;-43
2021/11/15 04:53:39;;;;;;;86.72;39.40;;;6.10;99.90;;;;;;5106670;28;20035;-43
2021/11/15 04:56:07;;;;;;;91.47;36.90;;;6.20;99.90;;;;;;5109168;28;20020;-44
2021/11/15 04:58:34;;;;;;;94.45;38.22;;;6.20;99.90;;;;;;5108380;28;20059;-43
2021/11/15 05:01:00;;;;;;;92.35;38.10;;;6.20;99.90;;;;;;5100766;28;20023;-42
2021/11/15 05:03:25;;;;;;;83.22;37.75;;;6.20;99.90;;;;;;5088509;28;20099;-42
2021/11/15 05:05:51;;;;;;;87.32;37.15;;;6.10;99.90;;;;;;5088000;28;20073;-43
2021/11/15 05:08:16;;;;;;;85.20;38.22;;;6.10;99.90;;;;;;5086878;28;20457;-42
2021/11/15 05:10:42;;;;;;;91.63;36.20;;;6.10;99.90;;;;;;5088797;28;20032;-45
2021/11/15 05:13:08;;;;;;;83.55;36.83;;;6.10;99.90;;;;;;5088606;28;20028;-45
2021/11/15 05:15:33;;;;;;;104.60;39.20;;;6.10;99.90;;;;;;5088540;28;20055;-44
2021/11/15 05:17:59;;;;;;;102.18;41.78;;;6.10;99.90;;;;;;5087778;28;20063;-42
2021/11/15 05:20:25;;;;;;;95.32;40.80;;;6.10;99.90;;;;;;5091045;28;20024;-43
2021/11/15 05:22:51;;;;;;;92.28;37.95;;;6.10;99.90;;;;;;5100052;28;20520;-43
2021/11/15 05:25:18;;;;;;;94.80;38.33;;;6.10;99.90;;;;;;5107252;28;20099;-42
2021/11/15 05:27:44;;;;;;;96.40;42.58;;;6.10;99.90;;;;;;5107974;28;20066;-46
2021/11/15 05:30:13;;;;;;;103.15;41.45;;;6.10;99.90;;;;;;5107232;28;20055;-44
2021/11/15 05:32:39;;;;;;;98.78;41.33;;;6.10;99.90;;;;;;5107142;28;20028;-43
2021/11/15 05:35:06;;;;;;;97.55;40.47;;;6.20;99.90;;;;;;5108192;27;20105;-46
2021/11/15 05:37:32;;;;;;;92.25;40.60;;;6.10;99.90;;;;;;5107774;28;20103;-42
2021/11/15 05:39:57;;;;;;;98.85;40.97;;;6.10;99.90;;;;;;5106852;28;20473;-43
2021/11/15 05:42:23;;;;;;;85.43;39.10;;;6.20;99.90;;;;;;5108430;28;20032;-43
2021/11/15 05:44:48;;;;;;;92.30;38.88;;;6.20;99.90;;;;;;5108291;28;20471;-43
2021/11/15 05:47:14;;;;;;;85.60;36.30;;;6.20;99.90;;;;;;5107173;28;20034;-43
2021/11/15 05:49:40;;;;;;;84.05;36.70;;;6.20;99.90;;;;;;5104422;28;20095;-43
2021/11/15 05:52:06;;;;;;;84.70;36.35;;;6.20;99.90;;;;;;5095148;28;20481;-44
2021/11/15 05:54:31;;;;;;;86.35;35.63;;;6.20;99.90;;;;;;5090250;28;20035;-45
2021/11/15 05:56:57;;;;;;;82.20;37.03;;;6.20;99.90;;;;;;5086249;28;20406;-43
2021/11/15 05:59:23;;;;;;;79.57;34.20;;;6.10;99.90;;;;;;5087118;28;20036;-43
2021/11/15 06:01:48;;;;;;;72.57;31.75;;;6.10;99.90;;;;;;5087595;28;20440;-43
2021/11/15 06:04:14;;;;;;;74.30;32.97;;;6.10;99.90;;;;;;5086319;28;20028;-45
2021/11/15 06:06:40;;;;;;;72.32;31.90;;;6.10;99.90;;;;;;5087533;28;20362;-43
2021/11/15 06:09:05;;;;;;;73.80;32.38;;;6.10;99.90;;;;;;5086950;28;20024;-43
2021/11/15 06:11:31;;;;;;;66.65;32.85;;;6.10;99.90;;;;;;5086194;28;20076;-45
2021/11/15 06:13:56;;;;;;;68.95;30.00;;;6.10;99.90;;;;;;5086172;28;20024;-45
2021/11/15 06:16:22;;;;;;;74.53;31.25;;;6.10;99.90;;;;;;5086969;28;20036;-43
2021/11/15 06:18:48;;;;;;;72.78;31.60;;;6.10;99.90;;;;;;5086595;28;20157;-44
2021/11/15 06:21:14;;;;;;;77.38;32.47;;;6.10;99.90;;;;;;5091460;28;20020;-46
2021/11/15 06:23:39;;;;;;;65.15;30.08;;;6.10;99.90;;;;;;5105346;28;20024;-44
2021/11/15 06:26:05;;;;;;;72.03;32.13;;;6.10;99.90;;;;;;5107915;28;20024;-47
2021/11/15 06:28:30;;;;;;;69.45;30.83;;;6.10;99.90;;;;;;5107227;28;20103;-46
2021/11/15 06:30:56;;;;;;;70.82;30.83;;;6.10;99.90;;;;;;5106508;28;20020;-43
2021/11/15 06:33:21;;;;;;;78.10;34.17;;;6.10;99.90;;;;;;5077985;28;20271;-44
2021/11/15 06:35:47;;;;;;;79.10;34.30;;;6.10;99.90;;;;;;5074101;28;20036;-45
2021/11/15 06:38:12;;;;;;;80.72;33.28;;;6.10;99.90;;;;;;5088523;28;20122;-46
2021/11/15 06:40:39;;;;;;;74.07;31.85;;;6.20;99.90;;;;;;5081182;28;20039;-44
2021/11/15 06:43:05;;;;;;;64.45;31.83;;;6.10;99.90;;;;;;5084543;28;20039;-44
2021/11/15 06:45:31;;;;;;;69.70;31.80;;;6.20;99.90;;;;;;5076745;28;20028;-43
2021/11/15 06:47:59;;;;;;;67.25;31.75;;;6.10;99.90;;;;;;5084418;28;20746;-43
2021/11/15 06:50:24;;;;;;;65.35;30.35;;;6.20;99.90;;;;;;5094827;28;20039;-47
2021/11/15 06:52:50;;;;;;;64.85;30.73;;;6.20;99.90;;;;;;5088495;28;20024;-50
2021/11/15 06:55:22;;;;;;;74.82;31.52;;;6.20;99.90;;;;;;5087247;28;20402;-44
2021/11/15 06:57:48;;;;;;;67.20;29.75;;;6.20;99.90;;;;;;5082476;28;20024;-44
2021/11/15 07:00:21;;;;;;;72.68;33.85;;;6.20;99.90;;;;;;5100914;28;20023;-44
2021/11/15 07:02:51;;;;;;;65.63;30.50;;;6.20;99.90;;;;;;5111312;28;20042;-44
2021/11/15 07:05:18;;;;;;;59.67;27.80;;;6.20;99.90;;;;;;5111002;28;20081;-44
2021/11/15 07:07:44;;;;;;;53.15;25.77;;;6.20;99.90;;;;;;5110443;28;20019;-44
2021/11/15 07:10:12;;;;;;;59.53;28.30;;;6.20;99.90;;;;;;5097671;28;20020;-45
2021/11/15 07:12:38;;;;;;;60.45;28.90;;;6.20;99.90;;;;;;5089158;28;20016;-44
2021/11/15 07:15:04;;;;;;;64.43;31.92;;;6.30;99.90;;;;;;5090532;28;20059;-44
2021/11/15 07:17:30;;;;;;;68.22;30.15;;;6.30;99.90;;;;;;5089839;28;20032;-44
2021/11/15 07:19:55;;;;;;;66.20;30.17;;;6.30;99.90;;;;;;5089560;28;20425;-44
2021/11/15 07:22:21;;;;;;;59.85;28.63;;;6.30;99.90;;;;;;5102229;28;20507;-45
2021/11/15 07:24:48;;;;;;;64.78;29.95;;;6.30;99.90;;;;;;5110785;28;20385;-43
2021/11/15 07:27:14;;;;;;;63.80;28.83;;;6.30;99.90;;;;;;5110000;28;20067;-44
2021/11/15 07:29:39;;;;;;;68.57;30.52;;;6.30;99.90;;;;;;5110933;28;20063;-45
2021/11/15 07:32:10;;;;;;;64.18;29.98;;;6.30;99.90;;;;;;5110515;28;20043;-44
2021/11/15 07:34:36;;;;;;;61.03;30.65;;;6.30;99.90;;;;;;5098683;28;20455;-50
2021/11/15 07:37:02;;;;;;;55.97;27.65;;;6.30;99.90;;;;;;5099938;28;20069;-47
2021/11/15 07:39:28;;;;;;;59.72;27.50;;;6.30;99.90;;;;;;5098375;28;20042;-43
2021/11/15 07:41:53;;;;;;;61.55;28.83;;;6.40;99.90;;;;;;5110057;28;20486;-44
2021/11/15 07:44:19;;;;;;;59.70;29.65;;;6.40;99.90;;;;;;5109254;28;20020;-45
2021/11/15 07:46:45;;;;;;;57.92;27.73;;;6.40;99.90;;;;;;5097095;28;20440;-46
2021/11/15 07:49:11;;;;;;;57.72;27.35;;;6.40;99.90;;;;;;5089633;28;20052;-45
2021/11/15 07:51:36;;;;;;;55.67;27.58;;;6.40;99.90;;;;;;5104633;28;20066;-44
2021/11/15 07:54:02;;;;;;;56.55;28.70;;;6.50;99.90;;;;;;5089042;28;20478;-45
2021/11/15 07:56:27;;;;;;;52.65;25.85;;;6.50;99.90;;;;;;5070758;28;20093;-44
2021/11/15 07:58:53;;;;;;;56.88;27.17;;;6.50;99.90;;;;;;5079857;28;20470;-44
2021/11/15 08:01:18;;;;;;;56.42;27.65;;;6.50;99.90;;;;;;5069386;28;20020;-44
2021/11/15 08:03:44;;;;;;;61.50;27.35;;;6.50;99.90;;;;;;5080972;28;20019;-44
2021/11/15 08:06:11;;;;;;;56.95;26.10;;;6.50;99.90;;;;;;5088327;28;20020;-44
2021/11/15 08:08:37;;;;;;;52.28;26.15;;;6.60;99.90;;;;;;5090181;28;20111;-44
2021/11/15 08:11:07;;;;;;;58.60;26.88;;;6.60;99.90;;;;;;5097646;28;20028;-44
2021/11/15 08:13:33;;;;;;;58.93;28.20;;;6.60;99.90;;;;;;5090143;28;20042;-45
2021/11/15 08:15:58;;;;;;;52.63;26.10;;;6.60;99.90;;;;;;5087660;28;20036;-44
2021/11/15 08:18:24;;;;;;;55.80;27.38;;;6.60;99.90;;;;;;5088391;28;20055;-44
2021/11/15 08:20:50;;;;;;;66.40;28.50;;;6.60;99.90;;;;;;5089465;28;20076;-45
2021/11/15 08:23:18;;;;;;;60.75;28.30;;;6.70;99.90;;;;;;5096716;28;20028;-46
2021/11/15 08:26:21;;;;;;;62.83;29.73;;;6.70;99.90;;;;;;5095304;28;20073;-44
2021/11/15 08:28:46;;;;;;;60.35;28.60;;;6.70;99.90;;;;;;5088167;28;20063;-44
2021/11/15 08:31:13;;;;;;;63.33;29.77;;;6.70;99.90;;;;;;5088357;28;20448;-45
2021/11/15 08:33:39;;;;;;;61.42;29.23;;;6.70;99.90;;;;;;5086847;28;20032;-44
2021/11/15 08:36:05;;;;;;;56.17;29.00;;;6.70;99.90;;;;;;5087155;28;20038;-44
2021/11/15 08:38:45;;;;;;;61.97;29.15;;;6.70;99.90;;;;;;5088492;28;20045;-45
2021/11/15 08:41:17;;;;;;;59.30;28.27;;;6.80;99.90;;;;;;5089623;28;20031;-44
2021/11/15 08:43:44;;;;;;;57.67;29.45;;;6.80;99.90;;;;;;5085261;28;20039;-44
2021/11/15 08:46:15;;;;;;;63.60;31.83;;;6.80;99.90;;;;;;5089707;28;20024;-45
2021/11/15 08:48:41;;;;;;;57.90;28.60;;;6.80;99.90;;;;;;5083987;28;20504;-44
2021/11/15 08:51:10;;;;;;;63.35;31.13;;;6.80;99.90;;;;;;5089157;28;20028;-44
2021/11/15 08:53:36;;;;;;;66.25;31.88;;;6.90;99.90;;;;;;5089587;28;20030;-44
2021/11/15 08:56:02;;;;;;;58.33;29.92;;;6.80;99.90;;;;;;5089006;28;20643;-44
2021/11/15 08:58:28;;;;;;;57.22;29.77;;;6.90;99.90;;;;;;5086983;28;20043;-46
2021/11/15 09:00:55;;;;;;;66.90;32.78;;;6.80;99.90;;;;;;5085712;28;20028;-45
2021/11/15 09:03:20;;;;;;;69.38;33.30;;;6.90;99.90;;;;;;5069143;28;20040;-45
2021/11/15 09:05:48;;;;;;;60.97;30.05;;;6.90;99.90;;;;;;5079189;28;20028;-45
2021/11/15 09:08:14;;;;;;;64.93;33.17;;;6.90;99.90;;;;;;5088787;28;20028;-43
2021/11/15 09:10:39;;;;;;;64.82;31.17;;;6.90;99.90;;;;;;5086987;28;20038;-43
2021/11/15 09:13:05;;;;;;;67.93;32.58;;;6.90;99.90;;;;;;5094338;28;20062;-45
2021/11/15 09:15:30;;;;;;;74.97;33.47;;;6.90;99.90;;;;;;5082305;28;20500;-45
2021/11/15 09:17:56;;;;;;;70.63;34.28;;;6.90;99.90;;;;;;5090171;28;20024;-45
2021/11/15 09:20:21;;;;;;;69.43;35.08;;;7.00;99.90;;;;;;5100399;28;20382;-45
2021/11/15 09:22:48;;;;;;;66.53;32.25;;;7.00;99.90;;;;;;5100185;28;20070;-46
2021/11/15 09:25:13;;;;;;;69.53;32.53;;;7.00;99.90;;;;;;5071686;28;20039;-44
2021/11/15 09:27:39;;;;;;;69.53;33.70;;;7.00;99.90;;;;;;5088177;28;20024;-44
2021/11/15 09:30:07;;;;;;;69.80;33.50;;;7.10;99.90;;;;;;5067703;28;20028;-44
2021/11/15 09:32:32;;;;;;;62.30;32.95;;;7.00;99.90;;;;;;5085896;28;20096;-46
2021/11/15 09:34:58;;;;;;;68.65;31.52;;;7.00;99.90;;;;;;5084318;28;20036;-45
2021/11/15 09:37:24;;;;;;;68.55;34.67;;;7.00;99.90;;;;;;5068495;28;20032;-44
2021/11/15 09:39:50;;;;;;;67.28;32.22;;;7.00;99.90;;;;;;5081581;28;20058;-44
2021/11/15 09:42:17;;;;;;;66.07;31.17;;;7.00;99.90;;;;;;5078881;28;20044;-44
2021/11/15 09:44:43;;;;;;;64.32;32.13;;;7.00;99.90;;;;;;5092064;28;20024;-44
2021/11/15 09:47:09;;;;;;;57.47;28.58;;;7.00;99.90;;;;;;5088395;28;20027;-44
2021/11/15 09:49:36;;;;;;;58.33;29.15;;;7.00;99.90;;;;;;5087039;28;20040;-46
2021/11/15 09:52:02;;;;;;;52.50;26.67;;;7.00;99.90;;;;;;5102670;28;20628;-46
2021/11/15 09:54:28;;;;;;;55.70;26.60;;;7.00;99.90;;;;;;5088488;28;20057;-43
2021/11/15 09:56:54;;;;;;;55.47;27.00;;;7.00;99.90;;;;;;5089024;28;20071;-44
2021/11/15 09:59:21;;;;;;;52.95;24.90;;;7.00;99.90;;;;;;5080604;28;20029;-45
2021/11/15 10:01:49;;;;;;;57.38;26.10;;;7.00;99.90;;;;;;5079184;28;20060;-44
2021/11/15 10:04:18;;;;;;;55.97;26.92;;;7.00;99.90;;;;;;5094464;28;20039;-44
2021/11/15 10:06:45;;;;;;;54.60;25.20;;;7.00;99.90;;;;;;5100217;28;20103;-43
2021/11/15 10:09:11;;;;;;;58.45;26.65;;;7.00;99.90;;;;;;5098113;28;20023;-43
2021/11/15 10:11:42;;;;;;;57.67;28.38;;;7.00;99.90;;;;;;5097396;28;20042;-47
2021/11/15 10:14:08;;;;;;;54.33;26.48;;;7.00;99.90;;;;;;5087274;28;20032;-45
2021/11/15 10:16:34;;;;;;;51.47;25.90;;;7.00;99.90;;;;;;5077199;28;20082;-44
2021/11/15 10:19:13;;;;;;;58.15;27.98;;;7.00;99.90;;;;;;5074653;28;20052;-43
2021/11/15 10:21:57;;;;;;;53.72;27.63;;;7.10;99.90;;;;;;5093267;28;20127;-42
2021/11/15 10:24:45;;;;;;;57.30;28.65;;;7.10;99.90;;;;;;5094462;28;20036;-49
2021/11/15 10:27:17;;;;;;;65.53;32.30;;;7.10;99.90;;;;;;5086370;28;20723;-44
2021/11/15 10:29:46;;;;;;;55.90;26.88;;;7.10;99.90;;;;;;5099204;28;20074;-43
2021/11/15 10:32:17;;;;;;;60.60;27.75;;;7.00;99.90;;;;;;5084271;28;20147;-43
2021/11/15 10:34:44;;;;;;;59.92;27.02;;;7.00;99.90;;;;;;5086945;28;21081;-43
2021/11/15 10:37:14;;;;;;;61.33;29.58;;;7.00;99.90;;;;;;5090063;28;20032;-44
2021/11/15 10:39:49;;;;;;;54.83;28.20;;;7.00;99.90;;;;;;5087039;28;20066;-44
2021/11/15 10:42:29;;;;;;;57.17;27.98;;;7.00;99.90;;;;;;5090309;28;20043;-47
2021/11/15 10:45:03;;;;;;;60.17;28.33;;;7.00;99.90;;;;;;5090573;28;20485;-43
2021/11/15 10:47:30;;;;;;;64.00;28.45;;;7.00;99.90;;;;;;5088017;28;20103;-43
2021/11/15 10:50:35;;;;;;;60.22;30.10;;;7.00;99.90;;;;;;5090377;28;20031;-43
2021/11/15 10:53:08;;;;;;;82.22;31.17;;;7.00;99.90;;;;;;5089012;28;20051;-44
2021/11/15 10:55:37;;;;;;;62.08;30.38;;;7.00;99.90;;;;;;5078265;28;20075;-44
2021/11/15 10:58:23;;;;;;;64.88;30.23;;;7.00;99.90;;;;;;5076305;28;20546;-44
2021/11/15 11:01:02;;;;;;;57.00;28.30;;;6.90;99.90;;;;;;5088149;28;20020;-43
2021/11/15 11:03:28;;;;;;;57.45;28.20;;;6.90;99.90;;;;;;5088840;28;20045;-43
2021/11/15 11:05:57;;;;;;;58.05;29.48;;;7.00;99.90;;;;;;5090327;28;20017;-44
2021/11/15 11:08:37;;;;;;;63.20;29.65;;;7.00;99.90;;;;;;5088664;28;20362;-44
2021/11/15 11:11:08;;;;;;;62.08;30.15;;;7.00;99.90;;;;;;5092656;28;20119;-43
2021/11/15 11:13:54;;;;;;;58.60;29.00;;;6.90;99.90;;;;;;5089547;28;20057;-43
2021/11/15 11:16:35;;;;;;;62.95;31.67;;;6.90;99.90;;;;;;5089174;28;20073;-44
2021/11/15 11:19:31;;;;;;;65.28;29.92;;;7.00;99.90;;;;;;5088892;28;20051;-44
2021/11/15 11:27:15;;;;;;;58.85;30.35;;;7.00;99.90;;;;;;5087290;28;20031;-48
2021/11/15 11:29:47;;;;;;;58.65;30.52;;;7.00;99.90;;;;;;5089167;28;20381;-44
2021/11/15 11:32:20;;;;;;;64.13;31.40;;;6.90;99.90;;;;;;5089845;28;20034;-44
2021/11/15 11:34:47;;;;;;;67.30;33.63;;;7.00;99.90;;;;;;5088038;28;20021;-44
2021/11/15 11:37:15;;;;;;;70.55;31.58;;;7.00;99.90;;;;;;5103718;28;20031;-48
2021/11/15 11:39:42;;;;;;;68.68;32.63;;;7.00;99.90;;;;;;5095259;28;20390;-43
2021/11/15 11:42:08;;;;;;;67.55;33.20;;;7.10;99.90;;;;;;5087995;28;20038;-43
2021/11/15 11:44:34;;;;;;;65.93;31.55;;;7.10;99.90;;;;;;5097635;28;20023;-43
2021/11/15 11:47:02;;;;;;;70.03;32.83;;;7.00;99.90;;;;;;5067150;28;20033;-44
2021/11/15 11:49:29;;;;;;;65.75;31.92;;;7.00;99.90;;;;;;5087442;28;20036;-45
2021/11/15 11:51:58;;;;;;;63.63;32.10;;;7.00;99.90;;;;;;5100320;28;20019;-44
2021/11/15 11:54:31;;;;;;;69.13;31.75;;;7.00;99.90;;;;;;5105453;28;20054;-44
2021/11/15 11:57:05;;;;;;;65.32;33.40;;;7.00;99.90;;;;;;5089634;28;20042;-44
2021/11/15 11:59:33;;;;;;;70.80;33.50;;;6.90;99.90;;;;;;5075389;28;20032;-44
2021/11/15 12:02:04;;;;;;;60.72;30.70;;;6.90;99.90;;;;;;5067897;28;20024;-44
2021/11/15 12:04:30;;;;;;;63.70;32.47;;;6.90;99.90;;;;;;5079305;28;20027;-44
2021/11/15 12:06:56;;;;;;;65.80;32.53;;;7.00;99.90;;;;;;5073027;28;20506;-43
2021/11/15 12:09:24;;;;;;;76.15;35.03;;;7.00;99.90;;;;;;5081961;28;20074;-44
2021/11/15 12:12:00;;;;;;;68.25;32.03;;;7.00;99.90;;;;;;5082269;28;20028;-44
2021/11/15 12:14:35;;;;;;;77.40;33.72;;;7.00;99.90;;;;;;5092562;28;20715;-45
2021/11/15 12:17:02;;;;;;;76.75;34.08;;;7.00;99.90;;;;;;5068030;28;20028;-44
2021/11/15 12:19:55;;;;;;;71.43;35.33;;;7.00;99.90;;;;;;5082452;28;20035;-46
2021/11/15 12:22:23;;;;;;;79.40;36.85;;;7.00;99.90;;;;;;5093100;28;20032;-44
2021/11/15 12:25:07;;;;;;;81.50;38.38;;;6.90;99.90;;;;;;5088561;28;20103;-44
2021/11/15 12:27:59;;;;;;;78.80;38.70;;;6.90;99.90;;;;;;5088748;28;20448;-44
2021/11/15 12:30:34;;;;;;;76.38;38.08;;;6.90;99.90;;;;;;5067646;28;20021;-44
2021/11/15 12:33:09;;;;;;;77.35;36.33;;;6.90;99.90;;;;;;5068861;28;20426;-43
2021/11/15 12:35:59;;;;;;;76.53;35.75;;;7.00;99.90;;;;;;5072732;28;20042;-43
2021/11/15 12:38:37;;;;;;;70.50;34.73;;;7.00;99.90;;;;;;5088516;28;20164;-44
2021/11/15 12:41:16;;;;;;;75.80;36.63;;;6.90;99.90;;;;;;5075824;28;20036;-44
2021/11/15 12:44:07;;;;;;;73.82;34.75;;;6.90;99.90;;;;;;5097186;28;20020;-43